This is the latest recevied weather packets stored in our database for station/object KS4XQ. If no packets are shown the sender has not sent any weather packets the latest 10 day(s).
| Time | Temp. | Humidity | Pressure | Rain* | Wind** | Luminosity | Snow |
|---|---|---|---|---|---|---|---|
| 1777447801 | 15° C | 97% | 1014.7 hPa | 0 mm | - | - | - |
| 1777447502 | 15° C | 97% | 1014.7 hPa | 0 mm | - | - | - |
| 1777446901 | 15° C | 97% | 1014.7 hPa | 0 mm | - | - | - |
| 1777446601 | 15° C | 97% | 1014.7 hPa | 0 mm | - | - | - |
| 1777445100 | 15° C | 97% | 1015 hPa | 0 mm | - | - | - |
| 1777440301 | 14.44° C | 97% | 1015.2 hPa | 0 mm | - | - | - |
| 1777439700 | 14.44° C | 96% | 1014.9 hPa | 0 mm | - | - | - |
| 1777439401 | 14.44° C | 95% | 1014.7 hPa | 0 mm | - | - | - |
| 1777439101 | 14.44° C | 95% | 1015.1 hPa | 0 mm | - | - | - |
| 1777437000 | 15° C | 95% | 1015.6 hPa | 0 mm | - | - | - |
| 1777435208 | 15° C | 95% | 1015.3 hPa | 0 mm | - | - | - |
| 1777434003 | 15° C | 95% | 1015.9 hPa | 0 mm | - | - | - |
| 1777428004 | 15° C | 93% | 1017.9 hPa | 0 mm | - | - | - |
| 1777424101 | 16.11° C | 90% | 1017.8 hPa | 0 mm | - | - | - |
| 1777419303 | 17.22° C | 87% | 1016.9 hPa | 0 mm | - | - | - |
| 1777416902 | 17.22° C | 86% | 1017.4 hPa | 0 mm | - | - | - |
| 1777416002 | 17.78° C | 85% | 1017.6 hPa | 0 mm | - | - | - |
| 1777415703 | 17.78° C | 84% | 1017.8 hPa | 0 mm | - | - | - |
| 1777413303 | 18.33° C | 83% | 1016.9 hPa | 0 mm | - | - | - |
| 1777413004 | 18.33° C | 83% | 1017 hPa | 0 mm | - | - | - |
| 1777411804 | 18.33° C | 83% | 1017 hPa | 0 mm | - | - | - |
| 1777410603 | 17.78° C | 84% | 1017.5 hPa | 0 mm | - | - | - |
| 1777409704 | 18.33° C | 83% | 1017.7 hPa | 0 mm | - | - | - |
| 1777405501 | 17.22° C | 86% | 1019.1 hPa | 0 mm | - | - | - |
| 1777402805 | 15.56° C | 88% | 1020.2 hPa | 0 mm | - | - | - |
* Rain latest hour (hover to see other rain measurements)
** Current wind speed in m/s (hover to see current wind gust speed)